sensor_id;sensor_type;location;lat;lon;timestamp;pressure;altitude;pressure_sealevel;temperature;humidity
65131;BME280;51709;54.912;8.316;2023-02-28T00:00:13;103105.53;;;6.21;63.02
65131;BME280;51709;54.912;8.316;2023-02-28T00:05:34;103113.06;;;6.18;63.10
65131;BME280;51709;54.912;8.316;2023-02-28T00:10:54;103106.06;;;6.12;62.96
65131;BME280;51709;54.912;8.316;2023-02-28T00:16:18;103098.16;;;6.05;63.07
65131;BME280;51709;54.912;8.316;2023-02-28T00:21:39;103099.94;;;6.07;62.83
65131;BME280;51709;54.912;8.316;2023-02-28T00:27:01;103095.72;;;6.08;62.74
65131;BME280;51709;54.912;8.316;2023-02-28T00:32:21;103100.03;;;6.10;62.63
65131;BME280;51709;54.912;8.316;2023-02-28T00:37:42;103103.38;;;6.08;62.57
65131;BME280;51709;54.912;8.316;2023-02-28T00:43:03;103109.28;;;6.07;62.72
65131;BME280;51709;54.912;8.316;2023-02-28T00:48:24;103113.41;;;6.03;62.81
65131;BME280;51709;54.912;8.316;2023-02-28T00:53:45;103117.56;;;6.01;62.82
65131;BME280;51709;54.912;8.316;2023-02-28T00:59:05;103123.53;;;6.01;62.79
65131;BME280;51709;54.912;8.316;2023-02-28T01:04:26;103124.34;;;6.00;62.70
65131;BME280;51709;54.912;8.316;2023-02-28T01:09:47;103119.97;;;5.98;62.66
65131;BME280;51709;54.912;8.316;2023-02-28T01:15:10;103113.06;;;5.94;62.75
65131;BME280;51709;54.912;8.316;2023-02-28T01:20:31;103124.91;;;5.93;62.97
65131;BME280;51709;54.912;8.316;2023-02-28T01:25:52;103119.78;;;5.92;62.62
65131;BME280;51709;54.912;8.316;2023-02-28T01:31:13;103117.13;;;5.89;62.62
65131;BME280;51709;54.912;8.316;2023-02-28T01:36:34;103127.16;;;5.84;62.73
65131;BME280;51709;54.912;8.316;2023-02-28T01:41:54;103124.44;;;5.79;62.98
65131;BME280;51709;54.912;8.316;2023-02-28T01:47:15;103126.25;;;5.83;62.85
65131;BME280;51709;54.912;8.316;2023-02-28T01:52:36;103126.69;;;5.96;62.50
65131;BME280;51709;54.912;8.316;2023-02-28T01:58:00;103123.50;;;6.00;62.28
65131;BME280;51709;54.912;8.316;2023-02-28T02:03:23;103114.41;;;6.08;62.21
65131;BME280;51709;54.912;8.316;2023-02-28T02:08:44;103122.34;;;6.16;61.83
65131;BME280;51709;54.912;8.316;2023-02-28T02:25:25;103116.09;;;6.08;62.14
65131;BME280;51709;54.912;8.316;2023-02-28T02:36:37;103110.75;;;6.00;62.09
65131;BME280;51709;54.912;8.316;2023-02-28T02:42:11;103103.88;;;5.99;62.12
65131;BME280;51709;54.912;8.316;2023-02-28T02:47:37;103104.03;;;6.02;62.03
65131;BME280;51709;54.912;8.316;2023-02-28T02:53:01;103094.63;;;6.01;62.01
65131;BME280;51709;54.912;8.316;2023-02-28T02:58:28;103102.69;;;5.89;62.32
65131;BME280;51709;54.912;8.316;2023-02-28T03:03:51;103108.41;;;5.83;62.45
65131;BME280;51709;54.912;8.316;2023-02-28T03:09:12;103097.78;;;5.71;62.80
65131;BME280;51709;54.912;8.316;2023-02-28T03:25:43;103097.78;;;5.24;63.78
65131;BME280;51709;54.912;8.316;2023-02-28T03:31:16;103093.47;;;4.99;64.27
65131;BME280;51709;54.912;8.316;2023-02-28T03:36:42;103089.41;;;4.83;64.49
65131;BME280;51709;54.912;8.316;2023-02-28T03:42:24;103086.47;;;4.72;64.73
65131;BME280;51709;54.912;8.316;2023-02-28T03:47:53;103085.00;;;4.56;64.70
65131;BME280;51709;54.912;8.316;2023-02-28T03:53:27;103088.78;;;4.44;64.79
65131;BME280;51709;54.912;8.316;2023-02-28T03:58:55;103083.19;;;4.32;64.73
65131;BME280;51709;54.912;8.316;2023-02-28T04:04:18;103089.50;;;4.21;64.92
65131;BME280;51709;54.912;8.316;2023-02-28T04:09:39;103086.56;;;4.11;64.92
65131;BME280;51709;54.912;8.316;2023-02-28T04:15:00;103091.38;;;4.05;64.92
65131;BME280;51709;54.912;8.316;2023-02-28T04:20:21;103083.44;;;3.97;65.12
65131;BME280;51709;54.912;8.316;2023-02-28T04:25:41;103087.38;;;3.91;64.92
65131;BME280;51709;54.912;8.316;2023-02-28T04:31:04;103092.06;;;3.81;65.06
65131;BME280;51709;54.912;8.316;2023-02-28T04:36:25;103103.47;;;3.72;65.19
65131;BME280;51709;54.912;8.316;2023-02-28T04:41:45;103107.56;;;3.68;65.20
65131;BME280;51709;54.912;8.316;2023-02-28T04:47:06;103115.78;;;3.62;64.92
65131;BME280;51709;54.912;8.316;2023-02-28T04:52:27;103105.41;;;3.58;65.28
65131;BME280;51709;54.912;8.316;2023-02-28T04:57:48;103117.97;;;3.54;65.09
65131;BME280;51709;54.912;8.316;2023-02-28T05:03:08;103113.38;;;3.46;65.16
65131;BME280;51709;54.912;8.316;2023-02-28T05:08:30;103107.03;;;3.37;65.41
65131;BME280;51709;54.912;8.316;2023-02-28T05:13:51;103118.47;;;3.28;65.33
65131;BME280;51709;54.912;8.316;2023-02-28T05:19:12;103119.91;;;3.22;65.30
65131;BME280;51709;54.912;8.316;2023-02-28T05:24:33;103109.75;;;3.22;65.35
65131;BME280;51709;54.912;8.316;2023-02-28T05:29:53;103115.47;;;3.18;65.33
65131;BME280;51709;54.912;8.316;2023-02-28T05:35:14;103121.81;;;3.08;65.32
65131;BME280;51709;54.912;8.316;2023-02-28T05:40:38;103126.22;;;2.95;65.42
65131;BME280;51709;54.912;8.316;2023-02-28T05:46:02;103129.31;;;2.89;65.37
65131;BME280;51709;54.912;8.316;2023-02-28T05:51:23;103123.91;;;2.81;65.41
65131;BME280;51709;54.912;8.316;2023-02-28T05:56:43;103127.81;;;2.74;65.43
65131;BME280;51709;54.912;8.316;2023-02-28T06:02:15;103128.72;;;2.76;65.37
65131;BME280;51709;54.912;8.316;2023-02-28T06:07:35;103125.34;;;2.76;65.39
65131;BME280;51709;54.912;8.316;2023-02-28T06:12:59;103121.69;;;2.71;65.42
65131;BME280;51709;54.912;8.316;2023-02-28T06:18:20;103136.34;;;2.76;65.40
65131;BME280;51709;54.912;8.316;2023-02-28T06:23:41;103138.81;;;2.75;65.37
65131;BME280;51709;54.912;8.316;2023-02-28T06:29:01;103139.44;;;2.71;65.30
65131;BME280;51709;54.912;8.316;2023-02-28T06:34:23;103135.19;;;2.70;65.32
65131;BME280;51709;54.912;8.316;2023-02-28T06:39:44;103137.16;;;2.75;65.17
65131;BME280;51709;54.912;8.316;2023-02-28T06:45:05;103142.06;;;2.72;65.38
65131;BME280;51709;54.912;8.316;2023-02-28T06:50:29;103146.19;;;2.70;65.46
65131;BME280;51709;54.912;8.316;2023-02-28T06:55:51;103139.22;;;2.66;65.55
65131;BME280;51709;54.912;8.316;2023-02-28T07:01:16;103149.31;;;2.65;65.40
65131;BME280;51709;54.912;8.316;2023-02-28T07:06:38;103161.41;;;2.70;65.04
65131;BME280;51709;54.912;8.316;2023-02-28T07:11:58;103156.78;;;2.80;65.33
65131;BME280;51709;54.912;8.316;2023-02-28T07:17:24;103160.94;;;2.96;64.91
65131;BME280;51709;54.912;8.316;2023-02-28T07:22:45;103166.91;;;3.14;64.72
65131;BME280;51709;54.912;8.316;2023-02-28T07:28:05;103164.78;;;3.23;64.51
65131;BME280;51709;54.912;8.316;2023-02-28T07:33:26;103173.41;;;3.45;64.32
65131;BME280;51709;54.912;8.316;2023-02-28T07:38:47;103172.94;;;3.72;64.07
65131;BME280;51709;54.912;8.316;2023-02-28T07:44:10;103162.13;;;3.96;63.73
65131;BME280;51709;54.912;8.316;2023-02-28T07:49:31;103163.06;;;4.18;63.65
65131;BME280;51709;54.912;8.316;2023-02-28T07:54:52;103162.97;;;4.36;63.65
65131;BME280;51709;54.912;8.316;2023-02-28T08:00:13;103164.63;;;4.55;63.71
65131;BME280;51709;54.912;8.316;2023-02-28T08:05:38;103168.72;;;4.72;63.58
65131;BME280;51709;54.912;8.316;2023-02-28T08:11:01;103162.47;;;4.85;63.54
65131;BME280;51709;54.912;8.316;2023-02-28T08:16:22;103164.13;;;5.06;63.19
65131;BME280;51709;54.912;8.316;2023-02-28T08:21:43;103169.03;;;5.22;63.19
65131;BME280;51709;54.912;8.316;2023-02-28T08:27:04;103168.75;;;5.37;62.97
65131;BME280;51709;54.912;8.316;2023-02-28T08:32:24;103170.84;;;5.48;63.06
65131;BME280;51709;54.912;8.316;2023-02-28T08:37:50;103170.41;;;5.60;62.99
65131;BME280;51709;54.912;8.316;2023-02-28T08:43:10;103168.56;;;5.78;63.06
65131;BME280;51709;54.912;8.316;2023-02-28T08:48:33;103169.81;;;5.90;63.10
65131;BME280;51709;54.912;8.316;2023-02-28T08:53:55;103176.31;;;6.04;63.13
65131;BME280;51709;54.912;8.316;2023-02-28T08:59:17;103178.53;;;6.19;62.98
65131;BME280;51709;54.912;8.316;2023-02-28T09:04:38;103179.28;;;6.41;62.72
65131;BME280;51709;54.912;8.316;2023-02-28T09:09:58;103185.63;;;6.52;62.68
65131;BME280;51709;54.912;8.316;2023-02-28T09:15:19;103176.22;;;6.77;62.46
65131;BME280;51709;54.912;8.316;2023-02-28T09:20:40;103183.75;;;7.00;62.26
65131;BME280;51709;54.912;8.316;2023-02-28T09:26:01;103179.75;;;7.08;62.31
65131;BME280;51709;54.912;8.316;2023-02-28T09:31:25;103169.19;;;7.24;62.41
65131;BME280;51709;54.912;8.316;2023-02-28T09:36:46;103181.25;;;7.29;62.76
65131;BME280;51709;54.912;8.316;2023-02-28T09:42:18;103190.31;;;7.48;62.92
65131;BME280;51709;54.912;8.316;2023-02-28T09:47:44;103189.03;;;7.91;62.38
65131;BME280;51709;54.912;8.316;2023-02-28T09:53:13;103191.91;;;8.34;61.85
65131;BME280;51709;54.912;8.316;2023-02-28T09:58:48;103195.56;;;8.77;61.30
65131;BME280;51709;54.912;8.316;2023-02-28T10:04:28;103213.06;;;8.96;61.49
65131;BME280;51709;54.912;8.316;2023-02-28T10:09:57;103220.16;;;9.07;61.58
65131;BME280;51709;54.912;8.316;2023-02-28T10:15:23;103232.53;;;9.25;61.40
65131;BME280;51709;54.912;8.316;2023-02-28T10:20:47;103232.19;;;9.48;61.17
65131;BME280;51709;54.912;8.316;2023-02-28T10:26:12;103225.59;;;9.60;61.26
65131;BME280;51709;54.912;8.316;2023-02-28T10:31:33;103237.97;;;10.21;60.17
65131;BME280;51709;54.912;8.316;2023-02-28T10:36:54;103229.00;;;10.43;59.74
65131;BME280;51709;54.912;8.316;2023-02-28T10:42:25;103226.34;;;10.87;59.22
65131;BME280;51709;54.912;8.316;2023-02-28T10:47:53;103222.50;;;11.80;57.74
65131;BME280;51709;54.912;8.316;2023-02-28T10:58:53;103210.59;;;23.52;35.32
65131;BME280;51709;54.912;8.316;2023-02-28T11:09:52;103210.25;;;30.69;26.79
65131;BME280;51709;54.912;8.316;2023-02-28T11:15:32;103192.63;;;30.42;25.76
65131;BME280;51709;54.912;8.316;2023-02-28T11:20:56;103198.00;;;31.43;26.47
65131;BME280;51709;54.912;8.316;2023-02-28T11:26:39;103195.06;;;34.79;22.92
65131;BME280;51709;54.912;8.316;2023-02-28T11:37:31;103194.97;;;34.60;22.94
65131;BME280;51709;54.912;8.316;2023-02-28T11:43:46;103194.91;;;33.00;23.83
65131;BME280;51709;54.912;8.316;2023-02-28T11:54:23;103173.16;;;33.06;22.42
65131;BME280;51709;54.912;8.316;2023-02-28T12:05:24;103171.22;;;33.41;21.32
65131;BME280;51709;54.912;8.316;2023-02-28T12:11:34;103168.69;;;33.72;20.45
65131;BME280;51709;54.912;8.316;2023-02-28T12:28:21;103164.28;;;37.32;16.97
65131;BME280;51709;54.912;8.316;2023-02-28T12:33:47;103165.50;;;39.03;16.06
65131;BME280;51709;54.912;8.316;2023-02-28T12:39:19;103151.72;;;38.98;15.63
65131;BME280;51709;54.912;8.316;2023-02-28T12:44:51;103155.91;;;40.15;14.89
65131;BME280;51709;54.912;8.316;2023-02-28T12:50:13;103158.63;;;41.63;14.03
65131;BME280;51709;54.912;8.316;2023-02-28T12:55:52;103158.97;;;42.56;13.56
65131;BME280;51709;54.912;8.316;2023-02-28T13:12:55;103156.63;;;35.70;18.51
65131;BME280;51709;54.912;8.316;2023-02-28T13:18:37;103131.28;;;35.94;17.37
65131;BME280;51709;54.912;8.316;2023-02-28T13:24:02;103128.13;;;35.12;17.40
65131;BME280;51709;54.912;8.316;2023-02-28T13:29:28;103119.66;;;34.77;17.19
65131;BME280;51709;54.912;8.316;2023-02-28T13:46:05;103114.97;;;32.46;17.28
65131;BME280;51709;54.912;8.316;2023-02-28T13:51:43;103115.00;;;31.88;17.50
65131;BME280;51709;54.912;8.316;2023-02-28T14:03:05;103107.19;;;21.63;28.16
65131;BME280;51709;54.912;8.316;2023-02-28T14:08:25;103102.31;;;16.00;36.90
65131;BME280;51709;54.912;8.316;2023-02-28T14:13:52;103106.28;;;13.68;40.76
65131;BME280;51709;54.912;8.316;2023-02-28T14:19:28;103104.66;;;12.28;42.86
65131;BME280;51709;54.912;8.316;2023-02-28T14:25:10;103094.97;;;11.25;44.54
65131;BME280;51709;54.912;8.316;2023-02-28T14:30:51;103090.94;;;10.80;45.01
65131;BME280;51709;54.912;8.316;2023-02-28T14:36:18;103096.34;;;10.40;45.37
65131;BME280;51709;54.912;8.316;2023-02-28T14:41:42;103092.44;;;10.13;45.85
65131;BME280;51709;54.912;8.316;2023-02-28T14:47:03;103086.22;;;10.00;46.36
65131;BME280;51709;54.912;8.316;2023-02-28T14:52:28;103079.44;;;9.56;47.25
65131;BME280;51709;54.912;8.316;2023-02-28T14:57:58;103085.94;;;8.99;48.67
65131;BME280;51709;54.912;8.316;2023-02-28T15:03:34;103083.00;;;8.81;48.99
65131;BME280;51709;54.912;8.316;2023-02-28T15:14:32;103079.72;;;8.88;48.85
65131;BME280;51709;54.912;8.316;2023-02-28T15:19:53;103075.50;;;8.90;48.95
65131;BME280;51709;54.912;8.316;2023-02-28T15:25:19;103080.34;;;8.77;49.43
65131;BME280;51709;54.912;8.316;2023-02-28T15:30:51;103070.66;;;8.64;49.94
65131;BME280;51709;54.912;8.316;2023-02-28T15:36:24;103064.25;;;8.46;50.67
65131;BME280;51709;54.912;8.316;2023-02-28T15:41:45;103075.75;;;8.29;51.31
65131;BME280;51709;54.912;8.316;2023-02-28T15:47:25;103080.16;;;8.01;52.10
65131;BME280;51709;54.912;8.316;2023-02-28T15:52:46;103079.34;;;7.68;52.83
65131;BME280;51709;54.912;8.316;2023-02-28T15:58:09;103073.53;;;7.44;53.16
65131;BME280;51709;54.912;8.316;2023-02-28T16:03:46;103072.88;;;7.20;53.86
65131;BME280;51709;54.912;8.316;2023-02-28T16:09:13;103058.66;;;7.00;54.13
65131;BME280;51709;54.912;8.316;2023-02-28T16:14:35;103073.47;;;6.83;54.37
65131;BME280;51709;54.912;8.316;2023-02-28T16:19:55;103077.41;;;6.73;54.56
65131;BME280;51709;54.912;8.316;2023-02-28T16:25:19;103077.09;;;6.62;55.01
65131;BME280;51709;54.912;8.316;2023-02-28T16:30:40;103076.44;;;6.42;55.32
65131;BME280;51709;54.912;8.316;2023-02-28T16:36:00;103070.91;;;6.28;55.77
65131;BME280;51709;54.912;8.316;2023-02-28T16:41:24;103068.25;;;6.25;55.82
65131;BME280;51709;54.912;8.316;2023-02-28T16:46:46;103076.47;;;6.17;56.03
65131;BME280;51709;54.912;8.316;2023-02-28T16:52:08;103066.91;;;6.10;56.41
65131;BME280;51709;54.912;8.316;2023-02-28T16:57:29;103071.22;;;6.13;56.49
65131;BME280;51709;54.912;8.316;2023-02-28T17:02:52;103076.59;;;5.96;57.00
65131;BME280;51709;54.912;8.316;2023-02-28T17:08:13;103080.75;;;5.93;57.39
65131;BME280;51709;54.912;8.316;2023-02-28T17:13:34;103089.88;;;5.88;57.43
65131;BME280;51709;54.912;8.316;2023-02-28T17:18:58;103080.53;;;5.88;57.69
65131;BME280;51709;54.912;8.316;2023-02-28T17:24:19;103100.78;;;5.83;57.92
65131;BME280;51709;54.912;8.316;2023-02-28T17:29:50;103098.84;;;5.76;58.24
65131;BME280;51709;54.912;8.316;2023-02-28T17:35:11;103099.38;;;5.67;58.71
65131;BME280;51709;54.912;8.316;2023-02-28T17:40:32;103110.19;;;5.62;59.12
65131;BME280;51709;54.912;8.316;2023-02-28T17:45:54;103111.00;;;5.61;59.25
65131;BME280;51709;54.912;8.316;2023-02-28T17:51:17;103111.81;;;5.60;59.33
65131;BME280;51709;54.912;8.316;2023-02-28T17:56:37;103112.59;;;5.57;59.59
65131;BME280;51709;54.912;8.316;2023-02-28T18:02:01;103122.56;;;5.51;59.87
65131;BME280;51709;54.912;8.316;2023-02-28T18:07:26;103126.66;;;5.47;59.79
65131;BME280;51709;54.912;8.316;2023-02-28T18:12:51;103124.81;;;5.43;60.22
65131;BME280;51709;54.912;8.316;2023-02-28T18:18:12;103121.38;;;5.43;60.35
65131;BME280;51709;54.912;8.316;2023-02-28T18:23:32;103121.38;;;5.43;60.36
65131;BME280;51709;54.912;8.316;2023-02-28T18:28:53;103127.53;;;5.48;60.23
65131;BME280;51709;54.912;8.316;2023-02-28T18:34:13;103120.72;;;5.47;60.46
65131;BME280;51709;54.912;8.316;2023-02-28T18:39:34;103121.28;;;5.39;60.67
65131;BME280;51709;54.912;8.316;2023-02-28T18:44:55;103123.84;;;5.39;60.79
65131;BME280;51709;54.912;8.316;2023-02-28T18:50:16;103122.97;;;5.39;60.79
65131;BME280;51709;54.912;8.316;2023-02-28T18:55:36;103137.22;;;5.34;61.08
65131;BME280;51709;54.912;8.316;2023-02-28T19:00:57;103119.31;;;5.32;61.31
65131;BME280;51709;54.912;8.316;2023-02-28T19:06:18;103118.28;;;5.27;61.36
65131;BME280;51709;54.912;8.316;2023-02-28T19:11:39;103111.13;;;5.17;61.83
65131;BME280;51709;54.912;8.316;2023-02-28T19:17:00;103111.66;;;5.09;62.23
65131;BME280;51709;54.912;8.316;2023-02-28T19:22:20;103114.66;;;4.99;62.66
65131;BME280;51709;54.912;8.316;2023-02-28T19:27:41;103120.34;;;4.92;62.90
65131;BME280;51709;54.912;8.316;2023-02-28T19:33:02;103111.50;;;4.84;63.42
65131;BME280;51709;54.912;8.316;2023-02-28T19:38:23;103112.94;;;4.77;63.76
65131;BME280;51709;54.912;8.316;2023-02-28T19:43:46;103118.28;;;4.62;64.55
65131;BME280;51709;54.912;8.316;2023-02-28T19:49:06;103128.47;;;4.62;64.88
65131;BME280;51709;54.912;8.316;2023-02-28T19:54:27;103109.72;;;4.60;64.94
65131;BME280;51709;54.912;8.316;2023-02-28T19:59:48;103120.84;;;4.62;65.16
65131;BME280;51709;54.912;8.316;2023-02-28T20:05:11;103116.94;;;4.70;65.10
65131;BME280;51709;54.912;8.316;2023-02-28T20:10:33;103107.22;;;4.83;64.49
65131;BME280;51709;54.912;8.316;2023-02-28T20:15:58;103094.47;;;4.81;64.60
65131;BME280;51709;54.912;8.316;2023-02-28T20:21:20;103107.22;;;4.83;64.66
65131;BME280;51709;54.912;8.316;2023-02-28T20:26:41;103102.91;;;4.80;64.88
65131;BME280;51709;54.912;8.316;2023-02-28T20:32:01;103104.69;;;4.83;64.75
65131;BME280;51709;54.912;8.316;2023-02-28T20:37:22;103107.22;;;4.83;64.90
65131;BME280;51709;54.912;8.316;2023-02-28T20:42:43;103107.13;;;4.80;65.16
65131;BME280;51709;54.912;8.316;2023-02-28T20:48:03;103096.69;;;4.73;65.19
65131;BME280;51709;54.912;8.316;2023-02-28T20:53:25;103096.69;;;4.73;64.87
65131;BME280;51709;54.912;8.316;2023-02-28T20:58:47;103100.22;;;4.77;64.63
65131;BME280;51709;54.912;8.316;2023-02-28T21:04:08;103089.69;;;4.68;64.66
65131;BME280;51709;54.912;8.316;2023-02-28T21:09:28;103076.66;;;4.60;64.88
65131;BME280;51709;54.912;8.316;2023-02-28T21:14:49;103075.69;;;4.56;64.83
65131;BME280;51709;54.912;8.316;2023-02-28T21:20:13;103091.72;;;4.55;64.81
65131;BME280;51709;54.912;8.316;2023-02-28T21:25:41;103090.69;;;4.50;64.88
65131;BME280;51709;54.912;8.316;2023-02-28T21:31:06;103098.88;;;4.43;65.01
65131;BME280;51709;54.912;8.316;2023-02-28T21:36:29;103104.13;;;4.47;64.96
65131;BME280;51709;54.912;8.316;2023-02-28T21:41:52;103092.56;;;4.33;65.17
65131;BME280;51709;54.912;8.316;2023-02-28T21:47:13;103098.59;;;4.15;65.39
65131;BME280;51709;54.912;8.316;2023-02-28T21:52:34;103096.31;;;4.02;65.66
65131;BME280;51709;54.912;8.316;2023-02-28T21:57:58;103099.28;;;3.92;65.70
65131;BME280;51709;54.912;8.316;2023-02-28T22:03:18;103110.13;;;3.88;65.39
65131;BME280;51709;54.912;8.316;2023-02-28T22:08:40;103108.25;;;3.83;65.27
65131;BME280;51709;54.912;8.316;2023-02-28T22:14:01;103108.66;;;3.73;65.59
65131;BME280;51709;54.912;8.316;2023-02-28T22:19:22;103109.91;;;3.63;65.90
65131;BME280;51709;54.912;8.316;2023-02-28T22:24:43;103106.31;;;3.58;65.66
65131;BME280;51709;54.912;8.316;2023-02-28T22:30:05;103115.88;;;3.64;65.45
65131;BME280;51709;54.912;8.316;2023-02-28T22:35:26;103115.19;;;3.68;65.52
65131;BME280;51709;54.912;8.316;2023-02-28T22:40:46;103110.19;;;3.69;65.62
65131;BME280;51709;54.912;8.316;2023-02-28T22:46:09;103113.19;;;3.80;65.76
65131;BME280;51709;54.912;8.316;2023-02-28T22:51:30;103116.66;;;3.82;65.95
65131;BME280;51709;54.912;8.316;2023-02-28T22:56:51;103110.97;;;3.88;66.11
65131;BME280;51709;54.912;8.316;2023-02-28T23:02:11;103123.75;;;3.90;66.56
65131;BME280;51709;54.912;8.316;2023-02-28T23:07:31;103116.25;;;3.93;66.77
65131;BME280;51709;54.912;8.316;2023-02-28T23:12:52;103108.63;;;3.93;67.12
65131;BME280;51709;54.912;8.316;2023-02-28T23:18:13;103112.88;;;3.92;67.57
65131;BME280;51709;54.912;8.316;2023-02-28T23:23:35;103113.72;;;3.93;67.81
65131;BME280;51709;54.912;8.316;2023-02-28T23:28:58;103107.03;;;3.95;67.93
65131;BME280;51709;54.912;8.316;2023-02-28T23:34:19;103110.53;;;3.97;67.96
65131;BME280;51709;54.912;8.316;2023-02-28T23:39:47;103110.63;;;4.00;68.03
65131;BME280;51709;54.912;8.316;2023-02-28T23:45:08;103105.63;;;4.01;68.01
65131;BME280;51709;54.912;8.316;2023-02-28T23:50:29;103103.09;;;4.01;68.06
65131;BME280;51709;54.912;8.316;2023-02-28T23:55:50;103113.25;;;4.01;68.11
